createdAt,value
2023-06-14T00:01:15.945Z,5.57
2023-06-14T00:03:42.522Z,7.63
2023-06-14T00:06:09.272Z,7.88
2023-06-14T00:08:36.146Z,6.88
2023-06-14T00:11:02.730Z,6.88
2023-06-14T00:13:29.302Z,6.33
2023-06-14T00:15:56.235Z,10.55
2023-06-14T00:18:25.359Z,4.40
2023-06-14T00:20:52.954Z,5.50
2023-06-14T00:23:19.692Z,6.47
2023-06-14T00:25:46.499Z,6.50
2023-06-14T00:28:13.176Z,6.88
2023-06-14T00:30:40.125Z,8.20
2023-06-14T00:33:06.825Z,7.20
2023-06-14T00:35:33.458Z,8.60
2023-06-14T00:38:00.823Z,4.83
2023-06-14T00:40:27.523Z,6.55
2023-06-14T00:42:54.192Z,9.25
2023-06-14T00:45:20.763Z,8.48
2023-06-14T00:47:48.897Z,7.25
2023-06-14T00:50:15.609Z,5.77
2023-06-14T00:52:42.551Z,8.10
2023-06-14T00:55:09.653Z,5.70
2023-06-14T00:57:38.843Z,6.95
2023-06-14T01:00:10.071Z,7.20
2023-06-14T01:02:38.805Z,4.33
2023-06-14T01:05:11.975Z,7.18
2023-06-14T01:07:50.248Z,11.18
2023-06-14T01:10:19.494Z,6.63
2023-06-14T01:12:54.045Z,12.40
2023-06-14T01:15:22.272Z,4.77
2023-06-14T01:17:52.857Z,6.25
2023-06-14T01:20:22.330Z,7.40
2023-06-14T01:22:52.874Z,6.85
2023-06-14T01:25:27.406Z,4.95
2023-06-14T01:28:00.826Z,7.93
2023-06-14T01:30:29.231Z,6.07
2023-06-14T01:32:57.223Z,6.35
2023-06-14T01:35:24.132Z,8.65
2023-06-14T01:37:53.131Z,7.68
2023-06-14T01:40:22.278Z,8.20
2023-06-14T01:42:51.238Z,6.35
2023-06-14T01:45:19.575Z,4.82
2023-06-14T01:47:48.020Z,5.50
2023-06-14T01:50:15.017Z,4.70
2023-06-14T01:52:41.884Z,6.13
2023-06-14T01:55:09.195Z,5.65
2023-06-14T01:57:36.028Z,5.80
2023-06-14T02:00:04.763Z,6.35
2023-06-14T02:02:31.400Z,7.57
2023-06-14T02:04:58.512Z,6.80
2023-06-14T02:07:25.495Z,5.72
2023-06-14T02:09:52.234Z,6.97
2023-06-14T02:12:19.013Z,7.05
2023-06-14T02:14:45.891Z,6.78
2023-06-14T02:17:12.862Z,6.77
2023-06-14T02:19:39.949Z,7.22
2023-06-14T02:22:06.654Z,5.82
2023-06-14T02:24:33.424Z,6.25
2023-06-14T02:27:00.206Z,5.30
2023-06-14T02:29:26.926Z,5.43
2023-06-14T02:31:53.981Z,7.72
2023-06-14T02:34:21.705Z,6.80
2023-06-14T02:36:49.175Z,6.32
2023-06-14T02:39:15.800Z,6.88
2023-06-14T02:41:42.471Z,6.07
2023-06-14T02:44:13.074Z,6.07
2023-06-14T02:46:39.802Z,6.45
2023-06-14T02:49:06.470Z,6.20
2023-06-14T02:51:33.187Z,5.68
2023-06-14T02:53:59.814Z,6.43
2023-06-14T02:56:27.440Z,6.18
2023-06-14T02:58:54.378Z,7.03
2023-06-14T03:01:22.002Z,5.90
2023-06-14T03:03:48.901Z,6.00
2023-06-14T03:06:17.979Z,6.30
2023-06-14T03:08:45.169Z,5.65
2023-06-14T03:11:11.789Z,5.30
2023-06-14T03:13:39.768Z,6.85
2023-06-14T03:16:06.725Z,8.95
2023-06-14T03:18:36.580Z,7.13
2023-06-14T03:21:04.085Z,8.98
2023-06-14T03:23:31.396Z,4.90
2023-06-14T03:25:58.285Z,7.72
2023-06-14T03:28:27.725Z,6.78
2023-06-14T03:30:54.569Z,7.20
2023-06-14T03:33:22.112Z,6.80
2023-06-14T03:35:48.982Z,7.80
2023-06-14T03:38:16.191Z,8.52
2023-06-14T03:40:43.129Z,5.25
2023-06-14T03:43:09.786Z,6.40
2023-06-14T03:45:36.407Z,5.43
2023-06-14T03:48:04.137Z,9.57
2023-06-14T03:50:30.898Z,7.35
2023-06-14T03:52:57.946Z,10.00
2023-06-14T03:57:55.968Z,6.03
2023-06-14T04:00:24.321Z,6.43
2023-06-14T04:02:51.175Z,7.10
2023-06-14T04:05:20.247Z,6.00
2023-06-14T04:07:49.582Z,5.43
2023-06-14T04:10:17.624Z,7.10
2023-06-14T04:12:44.510Z,8.95
2023-06-14T04:15:20.906Z,8.35
2023-06-14T04:17:48.873Z,4.55
2023-06-14T04:20:15.678Z,5.10
2023-06-14T04:22:44.643Z,6.30
2023-06-14T04:25:11.460Z,9.85
2023-06-14T04:27:39.559Z,9.20
2023-06-14T04:30:07.133Z,7.72
2023-06-14T04:32:35.076Z,7.63
2023-06-14T04:35:05.058Z,6.32
2023-06-14T04:37:31.874Z,6.50
2023-06-14T04:40:00.948Z,5.40
2023-06-14T04:42:32.232Z,7.28
2023-06-14T04:44:59.794Z,4.70
2023-06-14T04:47:30.933Z,7.22
2023-06-14T04:50:01.685Z,6.88
2023-06-14T04:52:30.808Z,6.85
2023-06-14T04:54:57.897Z,6.32
2023-06-14T04:57:26.676Z,5.33
2023-06-14T04:59:59.194Z,7.18
2023-06-14T05:02:29.953Z,7.68
2023-06-14T05:04:58.324Z,6.32
2023-06-14T05:07:26.559Z,8.20
2023-06-14T05:09:55.568Z,5.17
2023-06-14T05:12:22.255Z,6.30
2023-06-14T05:14:48.917Z,5.78
2023-06-14T05:17:15.605Z,7.57
2023-06-14T05:19:42.279Z,9.27
2023-06-14T05:22:08.876Z,7.33
2023-06-14T05:24:35.682Z,6.60
2023-06-14T05:27:02.377Z,7.25
2023-06-14T05:29:31.447Z,7.05
2023-06-14T05:31:58.332Z,6.53
2023-06-14T05:34:25.152Z,6.57
2023-06-14T05:36:51.683Z,5.93
2023-06-14T05:39:18.401Z,6.30
2023-06-14T05:41:45.187Z,7.07
2023-06-14T05:44:11.949Z,5.85
2023-06-14T05:46:41.188Z,6.37
2023-06-14T05:49:08.090Z,8.35
2023-06-14T05:51:34.806Z,7.85
2023-06-14T05:54:01.578Z,10.52
2023-06-14T05:56:28.456Z,8.38
2023-06-14T05:58:55.151Z,6.93
2023-06-14T06:01:21.819Z,6.40
2023-06-14T06:03:49.059Z,7.20
2023-06-14T06:06:17.474Z,11.73
2023-06-14T06:08:44.665Z,7.93
2023-06-14T06:11:16.273Z,7.80
2023-06-14T06:13:43.024Z,8.20
2023-06-14T06:16:09.977Z,6.53
2023-06-14T06:18:36.800Z,9.30
2023-06-14T06:21:05.585Z,8.32
2023-06-14T06:23:32.307Z,7.07
2023-06-14T06:25:59.187Z,8.05
2023-06-14T06:28:25.811Z,7.07
2023-06-14T06:30:52.456Z,5.70
2023-06-14T06:33:19.235Z,6.20
2023-06-14T06:35:46.560Z,7.67
2023-06-14T06:38:13.209Z,6.28
2023-06-14T06:40:39.884Z,6.85
2023-06-14T06:43:06.426Z,10.57
2023-06-14T06:45:32.998Z,6.90
2023-06-14T06:47:59.602Z,6.40
2023-06-14T06:50:26.360Z,10.10
2023-06-14T06:52:54.032Z,9.07
2023-06-14T06:55:21.568Z,9.55
2023-06-14T06:57:48.521Z,7.43
2023-06-14T07:00:15.884Z,9.83
2023-06-14T07:02:42.965Z,6.43
2023-06-14T07:05:10.033Z,9.40
2023-06-14T07:07:36.712Z,7.40
2023-06-14T07:10:05.944Z,6.70
2023-06-14T07:12:35.079Z,7.77
2023-06-14T07:15:02.062Z,7.88
2023-06-14T07:17:28.805Z,5.43
2023-06-14T07:19:55.484Z,8.30
2023-06-14T07:22:22.147Z,6.85
2023-06-14T07:24:48.662Z,6.50
2023-06-14T07:27:15.869Z,7.53
2023-06-14T07:29:42.631Z,8.82
2023-06-14T07:32:12.331Z,6.22
2023-06-14T07:34:38.920Z,6.78
2023-06-14T07:37:05.682Z,9.60
2023-06-14T07:39:32.289Z,7.60
2023-06-14T07:41:58.862Z,6.72
2023-06-14T07:44:25.735Z,10.43
2023-06-14T07:46:52.513Z,6.93
2023-06-14T07:49:19.095Z,9.57
2023-06-14T07:51:46.252Z,7.13
2023-06-14T07:54:12.895Z,7.57
2023-06-14T07:56:39.392Z,7.53
2023-06-14T07:59:07.074Z,8.00
2023-06-14T08:01:34.395Z,7.57
2023-06-14T08:04:01.040Z,6.70
2023-06-14T08:06:28.210Z,6.97
2023-06-14T08:08:54.865Z,6.75
2023-06-14T08:11:22.102Z,8.57
2023-06-14T08:13:48.749Z,7.17
2023-06-14T08:16:15.674Z,7.28
2023-06-14T08:18:42.272Z,6.68
2023-06-14T08:21:09.606Z,9.32
2023-06-14T08:23:37.138Z,7.75
2023-06-14T08:26:05.231Z,9.00
2023-06-14T08:28:31.833Z,7.85
2023-06-14T08:30:58.413Z,6.55
2023-06-14T08:33:25.155Z,8.70
2023-06-14T08:35:51.956Z,7.85
2023-06-14T08:38:18.966Z,6.87
2023-06-14T08:40:49.022Z,9.85
2023-06-14T08:43:16.079Z,10.32
2023-06-14T08:45:42.779Z,10.18
2023-06-14T08:48:10.407Z,11.13
2023-06-14T08:50:40.926Z,7.07
2023-06-14T08:53:11.607Z,7.45
2023-06-14T08:55:43.470Z,7.97
2023-06-14T08:58:10.670Z,6.03
2023-06-14T09:00:39.871Z,7.13
2023-06-14T09:03:07.018Z,11.80
2023-06-14T09:05:33.732Z,7.18
2023-06-14T09:08:04.163Z,10.93
2023-06-14T09:10:34.601Z,8.73
2023-06-14T09:13:02.674Z,7.75
2023-06-14T09:15:30.947Z,7.50
2023-06-14T09:17:57.681Z,6.90
2023-06-14T09:20:25.845Z,7.30
2023-06-14T09:22:52.926Z,8.25
2023-06-14T09:25:37.315Z,10.90
2023-06-14T09:28:08.122Z,6.10
2023-06-14T09:30:34.779Z,9.63
2023-06-14T09:33:02.337Z,9.02
2023-06-14T09:35:32.121Z,9.25
2023-06-14T09:37:59.012Z,9.75
2023-06-14T09:40:25.915Z,8.20
2023-06-14T09:42:53.770Z,9.40
2023-06-14T09:45:22.952Z,6.25
2023-06-14T09:48:06.116Z,7.70
2023-06-14T09:50:34.963Z,7.50
2023-06-14T09:53:08.257Z,10.37
2023-06-14T09:55:37.471Z,6.82
2023-06-14T09:58:08.817Z,9.00
2023-06-14T10:00:37.072Z,7.85
2023-06-14T10:03:31.590Z,9.55
2023-06-14T10:06:08.331Z,8.20
2023-06-14T10:08:38.230Z,10.50
2023-06-14T10:11:05.113Z,8.85
2023-06-14T10:13:34.749Z,8.68
2023-06-14T10:16:19.774Z,7.32
2023-06-14T10:18:50.631Z,8.10
2023-06-14T10:21:30.289Z,6.05
2023-06-14T10:23:59.503Z,8.73
2023-06-14T10:26:26.224Z,7.70
2023-06-14T10:29:08.858Z,6.15
2023-06-14T10:31:43.773Z,7.27
2023-06-14T10:34:11.048Z,7.15
2023-06-14T10:36:37.830Z,8.32
2023-06-14T10:39:19.179Z,8.25
2023-06-14T10:41:54.831Z,6.75
2023-06-14T10:44:21.349Z,7.50
2023-06-14T10:46:55.181Z,6.82
2023-06-14T10:49:44.374Z,7.95
2023-06-14T10:52:17.857Z,8.43
2023-06-14T10:55:07.326Z,8.45
2023-06-14T11:00:18.452Z,7.93
2023-06-14T11:03:16.338Z,8.60
2023-06-14T11:05:49.076Z,10.32
2023-06-14T11:08:40.972Z,6.60
2023-06-14T11:11:09.307Z,7.30
2023-06-14T11:13:39.673Z,7.20
2023-06-14T11:16:12.154Z,7.75
2023-06-14T11:18:38.935Z,7.65
2023-06-14T11:21:05.869Z,6.43
2023-06-14T11:23:32.469Z,9.87
2023-06-14T11:25:59.926Z,7.50
2023-06-14T11:28:41.498Z,6.88
2023-06-14T11:31:08.859Z,10.13
2023-06-14T11:33:35.639Z,8.43
2023-06-14T11:36:09.539Z,6.53
2023-06-14T11:38:38.400Z,10.63
2023-06-14T11:41:05.135Z,7.18
2023-06-14T11:43:34.674Z,7.63
2023-06-14T11:46:08.395Z,6.85
2023-06-14T11:48:40.835Z,6.50
2023-06-14T11:51:07.548Z,6.60
2023-06-14T11:53:35.096Z,9.82
2023-06-14T11:56:02.828Z,8.10
2023-06-14T11:58:30.578Z,8.55
2023-06-14T12:00:57.399Z,6.07
2023-06-14T12:03:26.650Z,6.03
2023-06-14T12:06:08.639Z,6.97
2023-06-14T12:08:41.303Z,5.53
2023-06-14T12:11:12.557Z,6.30
2023-06-14T12:13:41.633Z,5.75
2023-06-14T12:16:10.355Z,6.20
2023-06-14T12:18:38.923Z,6.13
2023-06-14T12:21:07.827Z,5.68
2023-06-14T12:23:45.381Z,6.60
2023-06-14T12:26:19.913Z,9.32
2023-06-14T12:28:47.909Z,8.45
2023-06-14T12:31:16.293Z,8.45
2023-06-14T12:33:43.815Z,7.07
2023-06-14T12:36:11.536Z,5.40
2023-06-14T12:38:38.736Z,8.90
2023-06-14T12:41:05.595Z,7.00
2023-06-14T12:43:32.476Z,7.78
2023-06-14T12:45:59.141Z,6.13
2023-06-14T12:48:25.976Z,7.43
2023-06-14T12:50:52.506Z,6.25
2023-06-14T12:53:19.109Z,10.02
2023-06-14T12:55:45.883Z,4.55
2023-06-14T12:58:15.374Z,5.70
2023-06-14T13:00:41.963Z,7.03
2023-06-14T13:03:08.702Z,5.05
2023-06-14T13:05:35.422Z,6.55
2023-06-14T13:08:02.012Z,5.22
2023-06-14T13:10:29.258Z,5.32
2023-06-14T13:12:55.952Z,8.37
2023-06-14T13:15:22.622Z,5.63
2023-06-14T13:17:49.907Z,5.55
2023-06-14T13:20:20.345Z,4.28
2023-06-14T13:22:47.774Z,6.57
2023-06-14T13:25:14.539Z,9.17
2023-06-14T13:27:41.198Z,4.75
2023-06-14T13:30:08.300Z,6.03
2023-06-14T13:32:34.960Z,4.75
2023-06-14T13:35:01.977Z,5.55
2023-06-14T13:37:28.937Z,2.30
2023-06-14T13:39:56.451Z,3.63
2023-06-14T13:42:23.185Z,5.47
2023-06-14T13:44:49.825Z,5.20
2023-06-14T13:47:17.069Z,3.40
2023-06-14T13:49:43.757Z,3.60
2023-06-14T13:52:10.475Z,5.20
2023-06-14T13:54:37.700Z,4.47
2023-06-14T13:57:04.383Z,4.50
2023-06-14T13:59:30.998Z,4.10
2023-06-14T14:01:58.126Z,4.07
2023-06-14T14:04:24.937Z,3.35
2023-06-14T14:06:51.561Z,3.50
2023-06-14T14:09:18.570Z,5.10
2023-06-14T14:11:45.146Z,3.97
2023-06-14T14:14:11.842Z,3.43
2023-06-14T14:16:38.938Z,4.35
2023-06-14T14:19:05.777Z,3.75
2023-06-14T14:21:32.561Z,4.70
2023-06-14T14:24:00.092Z,3.80
2023-06-14T14:26:27.001Z,3.40
2023-06-14T14:28:53.517Z,4.75
2023-06-14T14:31:20.259Z,3.35
2023-06-14T14:33:46.895Z,4.22
2023-06-14T14:36:14.676Z,3.00
2023-06-14T14:38:41.316Z,4.40
2023-06-14T14:41:07.857Z,2.85
2023-06-14T14:43:34.576Z,5.13
2023-06-14T14:46:01.196Z,3.20
2023-06-14T14:48:27.862Z,4.57
2023-06-14T14:50:54.439Z,5.90
2023-06-14T14:53:21.041Z,4.07
2023-06-14T14:55:47.834Z,4.80
2023-06-14T14:58:18.177Z,2.60
2023-06-14T15:00:46.959Z,2.80
2023-06-14T15:03:14.011Z,3.53
2023-06-14T15:05:41.133Z,2.60
2023-06-14T15:08:13.855Z,2.92
2023-06-14T15:10:42.634Z,4.38
2023-06-14T15:13:09.508Z,3.38
2023-06-14T15:15:37.335Z,4.30
2023-06-14T15:18:04.159Z,6.47
2023-06-14T15:20:31.137Z,4.50
2023-06-14T15:23:00.690Z,3.42
2023-06-14T15:25:31.316Z,3.20
2023-06-14T15:27:57.966Z,3.30
2023-06-14T15:30:24.611Z,11.23
2023-06-14T15:32:51.670Z,3.85
2023-06-14T15:35:22.006Z,5.55
2023-06-14T15:37:49.247Z,3.53
2023-06-14T15:40:17.106Z,6.00
2023-06-14T15:42:44.181Z,4.70
2023-06-14T15:45:11.365Z,3.58
2023-06-14T15:47:38.444Z,4.97
2023-06-14T15:50:08.763Z,3.58
2023-06-14T15:52:35.885Z,4.03
2023-06-14T15:55:03.243Z,3.72
2023-06-14T15:57:30.508Z,4.60
2023-06-14T15:59:57.096Z,4.10
2023-06-14T16:02:23.763Z,7.50
2023-06-14T16:04:51.496Z,3.63
2023-06-14T16:07:19.598Z,3.50
2023-06-14T16:09:46.167Z,2.88
2023-06-14T16:12:14.157Z,3.55
2023-06-14T16:14:40.797Z,3.88
2023-06-14T16:17:07.621Z,3.77
2023-06-14T16:19:34.339Z,3.58
2023-06-14T16:22:01.312Z,5.25
2023-06-14T16:24:28.188Z,4.07
2023-06-14T16:26:55.318Z,3.20
2023-06-14T16:29:22.254Z,2.97
2023-06-14T16:31:48.926Z,4.47
2023-06-14T16:34:16.800Z,4.63
2023-06-14T16:36:44.869Z,5.40
2023-06-14T16:39:12.921Z,4.75
2023-06-14T16:41:39.629Z,4.57
2023-06-14T16:44:06.195Z,4.22
2023-06-14T16:46:34.038Z,2.92
2023-06-14T16:49:01.753Z,4.07
2023-06-14T16:51:28.637Z,3.13
2023-06-14T16:53:56.345Z,4.30
2023-06-14T16:56:27.823Z,6.00
2023-06-14T16:59:00.861Z,4.63
2023-06-14T17:01:30.558Z,4.47
2023-06-14T17:03:57.231Z,5.05
2023-06-14T17:06:25.223Z,3.57
2023-06-14T17:08:53.611Z,7.25
2023-06-14T17:11:23.485Z,3.60
2023-06-14T17:13:51.029Z,4.63
2023-06-14T17:16:17.786Z,3.35
2023-06-14T17:18:44.394Z,3.13
2023-06-14T17:21:11.076Z,4.47
2023-06-14T17:23:37.672Z,4.68
2023-06-14T17:26:04.299Z,4.10
2023-06-14T17:28:30.833Z,6.05
2023-06-14T17:30:57.439Z,3.50
2023-06-14T17:33:24.068Z,4.18
2023-06-14T17:35:50.968Z,6.40
2023-06-14T17:38:17.747Z,4.47
2023-06-14T17:40:50.749Z,3.53
2023-06-14T17:43:18.096Z,6.33
2023-06-14T17:45:44.772Z,3.35
2023-06-14T17:48:11.448Z,2.55
2023-06-14T17:50:40.195Z,5.47
2023-06-14T17:53:07.627Z,4.30
2023-06-14T17:55:37.302Z,3.03
2023-06-14T17:58:05.101Z,3.85
2023-06-14T18:00:31.833Z,3.35
2023-06-14T18:02:59.762Z,3.13
2023-06-14T18:05:32.891Z,5.07
2023-06-14T18:07:59.500Z,3.23
2023-06-14T18:10:26.519Z,3.15
2023-06-14T18:12:53.128Z,4.28
2023-06-14T18:15:19.862Z,8.68
2023-06-14T18:17:46.504Z,4.45
2023-06-14T18:20:13.229Z,3.87
2023-06-14T18:22:39.903Z,4.18
2023-06-14T18:25:06.770Z,3.25
2023-06-14T18:27:33.435Z,3.38
2023-06-14T18:30:00.053Z,4.28
2023-06-14T18:32:31.203Z,3.03
2023-06-14T18:34:58.044Z,4.45
2023-06-14T18:37:25.950Z,3.97
2023-06-14T18:39:54.590Z,3.80
2023-06-14T18:42:23.420Z,2.40
2023-06-14T18:44:50.430Z,4.30
2023-06-14T18:47:17.138Z,3.65
2023-06-14T18:49:43.785Z,3.13
2023-06-14T18:52:10.915Z,2.58
2023-06-14T18:54:37.469Z,3.42
2023-06-14T18:57:04.382Z,2.93
2023-06-14T18:59:30.980Z,3.35
2023-06-14T19:01:57.624Z,3.95
2023-06-14T19:04:24.495Z,3.40
2023-06-14T19:06:51.522Z,2.55
2023-06-14T19:09:21.172Z,2.50
2023-06-14T19:11:48.615Z,2.75
2023-06-14T19:14:15.953Z,2.28
2023-06-14T19:16:42.850Z,3.63
2023-06-14T19:19:09.702Z,2.40
2023-06-14T19:21:36.488Z,2.67
2023-06-14T19:24:03.380Z,2.92
2023-06-14T19:26:31.865Z,5.00
2023-06-14T19:28:58.862Z,3.72
2023-06-14T19:31:26.366Z,3.97
2023-06-14T19:34:01.169Z,4.20
2023-06-14T19:36:27.937Z,3.45
2023-06-14T19:38:54.687Z,3.80
2023-06-14T19:41:21.896Z,2.90
2023-06-14T19:43:48.710Z,3.90
2023-06-14T19:46:17.990Z,2.90
2023-06-14T19:48:48.926Z,5.55
2023-06-14T19:51:15.786Z,3.13
2023-06-14T19:53:42.486Z,2.90
2023-06-14T19:56:09.698Z,4.05
2023-06-14T19:58:36.348Z,5.37
2023-06-14T20:01:03.022Z,3.08
2023-06-14T20:03:29.875Z,3.25
2023-06-14T20:05:56.802Z,2.92
2023-06-14T20:08:26.590Z,3.85
2023-06-14T20:10:53.899Z,2.80
2023-06-14T20:13:20.909Z,3.20
2023-06-14T20:15:47.667Z,2.20
2023-06-14T20:18:14.566Z,4.03
2023-06-14T20:20:42.843Z,4.47
2023-06-14T20:23:09.598Z,2.93
2023-06-14T20:25:36.282Z,4.32
2023-06-14T20:28:07.368Z,2.72
2023-06-14T20:30:34.195Z,2.85
2023-06-14T20:33:00.954Z,3.25
2023-06-14T20:35:28.244Z,2.53
2023-06-14T20:37:54.967Z,3.95
2023-06-14T20:40:26.325Z,3.42
2023-06-14T20:42:58.379Z,4.75
2023-06-14T20:45:28.325Z,3.67
2023-06-14T20:48:01.268Z,3.67
2023-06-14T20:50:28.203Z,3.53
2023-06-14T20:52:55.056Z,4.10
2023-06-14T20:55:21.815Z,3.22
2023-06-14T20:57:49.248Z,3.33
2023-06-14T21:00:17.111Z,2.83
2023-06-14T21:02:44.170Z,3.45
2023-06-14T21:05:11.366Z,4.03
2023-06-14T21:07:38.161Z,3.40
2023-06-14T21:10:06.087Z,4.00
2023-06-14T21:12:32.902Z,5.27
2023-06-14T21:15:01.922Z,3.20
2023-06-14T21:17:31.261Z,3.58
2023-06-14T21:20:00.897Z,3.15
2023-06-14T21:22:27.587Z,3.25
2023-06-14T21:24:54.276Z,4.50
2023-06-14T21:27:21.091Z,3.63
2023-06-14T21:29:47.885Z,2.88
2023-06-14T21:32:14.614Z,2.83
2023-06-14T21:34:43.952Z,3.15
2023-06-14T21:37:13.709Z,3.50
2023-06-14T21:39:41.255Z,3.90
2023-06-14T21:42:08.462Z,2.72
2023-06-14T21:44:41.513Z,3.00
2023-06-14T21:47:09.598Z,3.83
2023-06-14T21:49:36.301Z,3.87
2023-06-14T21:52:03.880Z,3.78
2023-06-14T21:54:31.375Z,3.42
2023-06-14T21:56:58.177Z,3.75
2023-06-14T21:59:24.776Z,3.25
2023-06-14T22:01:51.890Z,4.47
2023-06-14T22:04:21.205Z,3.20
2023-06-14T22:06:48.131Z,4.43
2023-06-14T22:09:16.130Z,5.78
2023-06-14T22:11:44.986Z,3.60
2023-06-14T22:14:13.317Z,2.67
2023-06-14T22:16:40.492Z,3.17
2023-06-14T22:19:09.440Z,4.38
2023-06-14T22:21:36.254Z,4.43
2023-06-14T22:24:04.515Z,3.55
2023-06-14T22:26:40.451Z,4.30
2023-06-14T22:29:07.605Z,4.63
2023-06-14T22:31:38.409Z,4.55
2023-06-14T22:34:10.023Z,4.25
2023-06-14T22:36:38.968Z,4.10
2023-06-14T22:39:06.132Z,4.00
2023-06-14T22:41:38.496Z,3.17
2023-06-14T22:44:06.127Z,5.05
2023-06-14T22:46:34.324Z,4.47
2023-06-14T22:49:02.975Z,5.72
2023-06-14T22:51:32.327Z,3.47
2023-06-14T22:53:59.610Z,4.80
2023-06-14T22:56:27.052Z,6.55
2023-06-14T22:58:58.525Z,4.38
2023-06-14T23:01:28.099Z,3.75
2023-06-14T23:04:01.726Z,7.70
2023-06-14T23:06:28.722Z,5.65
2023-06-14T23:08:57.041Z,5.82
2023-06-14T23:11:24.329Z,6.82
2023-06-14T23:13:57.735Z,4.68
2023-06-14T23:16:38.147Z,2.87
2023-06-14T23:19:13.195Z,5.47
2023-06-14T23:21:40.478Z,3.85
2023-06-14T23:24:13.205Z,5.90
2023-06-14T23:26:42.237Z,5.35
2023-06-14T23:29:09.511Z,6.67
2023-06-14T23:31:36.379Z,4.65
2023-06-14T23:34:04.780Z,5.95
2023-06-14T23:36:33.993Z,4.22
2023-06-14T23:39:11.830Z,5.25
2023-06-14T23:41:42.076Z,5.30
2023-06-14T23:44:13.116Z,7.93
2023-06-14T23:46:41.393Z,5.28
2023-06-14T23:49:10.968Z,4.20
2023-06-14T23:51:38.818Z,5.70
2023-06-14T23:54:10.026Z,6.27
2023-06-14T23:56:40.823Z,6.70
2023-06-14T23:59:07.761Z,5.25
